Gervais, OR (97026)

3:50 PM PDT on July 25, 2016 (GMT -0700)
North of Brooks | | Change Station

Elev 177 ft 45.07 °N, 122.93 °W | Updated 43 seconds ago

Clear
Clear
87.4 °F
Feels Like 87 °F
N
1.7
Wind Variable Wind from NNE

Today
High -- | Low -- °F
--% Chance of Precip.
Yesterday
High -- | Low -- °F
Precip. -- in
Pressure 30.03 in
Visibility 10.0 miles
Clouds Clear
Heat Index 87 °F
Dew Point 61 °F
Humidity 41%
Rainfall 0.00 in
Snow Depth Not available.
5:49 AM 8:46 PM
Waning Gibbous, 61% visible
METAR KMMV 252153Z AUTO VRB06KT 10SM CLR 29/14 A3003 RMK AO2 SLP167 T02940144
Pressure 30.03 in
Visibility 10.0 miles
Clouds Clear
Heat Index 87 °F
Dew Point 61 °F
Humidity 41%
Rainfall 0.00 in
Snow Depth Not available.
5:49 AM 8:46 PM
Waning Gibbous, 61% visible
METAR KMMV 252153Z AUTO VRB06KT 10SM CLR 29/14 A3003 RMK AO2 SLP167 T02940144

10-Day Weather Forecast

Almanac

Astronomy

Jul. 25, 2016 Rise Set
Actual Time
Civil Twilight
Nautical Twilight
Astronomical Twilight
Moon
Length of Visible Light
Length of Day
Tomorrow will be .
, % of the Moon is Illuminated

Today's Extremes

State Highs State Lows

Community

WunderPhotos

Upload Photos

1,927,436 photos uploaded!

WunderBlog® & News

Nearby

Air Quality

  Air Quality AQ Index Pollutant
Not available.

Snow Depth

Station Depth Elevation

Earthquake Activity

City Distance Mag. Time & Date
Minimum magnitude displayed is 2.5.

Coastal Water Temperatures

Place Temperature

Stations

Nearby Weather Stations

Station Location Temp. Windchill Dew Point Humidity Wind Precip. Elev Updated Type
                   

Watches & Warnings

There are currently no watches in effect.